createdAt,value
2023-01-04T00:02:04.122Z,100.00
2023-01-04T00:04:32.251Z,100.00
2023-01-04T00:07:00.344Z,100.00
2023-01-04T00:09:28.416Z,100.00
2023-01-04T00:11:56.621Z,100.00
2023-01-04T00:14:26.436Z,100.00
2023-01-04T00:16:54.536Z,100.00
2023-01-04T00:19:25.139Z,100.00
2023-01-04T00:21:53.421Z,100.00
2023-01-04T00:24:26.450Z,100.00
2023-01-04T00:27:08.974Z,100.00
2023-01-04T00:29:38.519Z,100.00
2023-01-04T00:32:06.608Z,100.00
2023-01-04T00:34:34.783Z,100.00
2023-01-04T00:37:02.963Z,100.00
2023-01-04T00:39:31.176Z,100.00
2023-01-04T00:42:05.455Z,100.00
2023-01-04T00:44:34.567Z,100.00
2023-01-04T00:47:06.558Z,100.00
2023-01-04T00:49:34.975Z,100.00
2023-01-04T00:52:03.135Z,100.00
2023-01-04T00:54:31.190Z,100.00
2023-01-04T00:56:59.635Z,100.00
2023-01-04T00:59:28.043Z,100.00
2023-01-04T01:01:58.496Z,100.00
2023-01-04T01:04:28.110Z,100.00
2023-01-04T01:06:56.212Z,100.00
2023-01-04T01:09:25.232Z,100.00
2023-01-04T01:11:58.429Z,100.00
2023-01-04T01:14:27.371Z,100.00
2023-01-04T01:16:58.813Z,100.00
2023-01-04T01:19:32.867Z,100.00
2023-01-04T01:22:02.893Z,100.00
2023-01-04T01:24:35.236Z,100.00
2023-01-04T01:27:03.442Z,100.00
2023-01-04T01:29:31.521Z,100.00
2023-01-04T01:31:59.853Z,100.00
2023-01-04T01:34:29.495Z,100.00
2023-01-04T01:36:57.614Z,100.00
2023-01-04T01:39:25.755Z,100.00
2023-01-04T01:41:55.446Z,100.00
2023-01-04T01:44:58.633Z,100.00
2023-01-04T01:47:31.653Z,100.00
2023-01-04T01:50:02.123Z,100.00
2023-01-04T01:52:35.391Z,100.00
2023-01-04T01:55:07.524Z,100.00
2023-01-04T01:57:39.070Z,100.00
2023-01-04T02:00:10.556Z,100.00
2023-01-04T02:02:40.999Z,100.00
2023-01-04T02:05:12.196Z,100.00
2023-01-04T02:07:40.350Z,100.00
2023-01-04T02:10:09.715Z,100.00
2023-01-04T02:12:37.870Z,100.00
2023-01-04T02:15:07.092Z,100.00
2023-01-04T02:17:44.234Z,100.00
2023-01-04T02:20:32.938Z,100.00
2023-01-04T02:23:27.137Z,100.00
2023-01-04T02:26:40.536Z,100.00
2023-01-04T02:29:58.126Z,100.00
2023-01-04T02:32:41.480Z,100.00
2023-01-04T02:35:18.616Z,100.00
2023-01-04T02:37:55.242Z,100.00
2023-01-04T02:40:32.565Z,100.00
2023-01-04T02:43:23.783Z,100.00
2023-01-04T02:45:57.152Z,100.00
2023-01-04T02:48:53.284Z,100.00
2023-01-04T02:51:28.733Z,100.00
2023-01-04T02:53:59.845Z,100.00
2023-01-04T02:56:38.781Z,100.00
2023-01-04T02:59:37.855Z,100.00
2023-01-04T03:02:39.311Z,100.00
2023-01-04T03:05:52.335Z,100.00
2023-01-04T03:08:29.670Z,100.00
2023-01-04T03:11:03.510Z,100.00
2023-01-04T03:13:36.037Z,100.00
2023-01-04T03:16:09.463Z,100.00
2023-01-04T03:18:41.973Z,100.00
2023-01-04T03:21:14.830Z,100.00
2023-01-04T03:24:05.847Z,100.00
2023-01-04T03:26:57.051Z,100.00
2023-01-04T03:29:50.601Z,100.00
2023-01-04T03:32:42.141Z,100.00
2023-01-04T03:35:28.267Z,100.00
2023-01-04T03:38:20.766Z,100.00
2023-01-04T03:41:16.307Z,100.00
2023-01-04T03:44:10.907Z,100.00
2023-01-04T03:47:04.154Z,100.00
2023-01-04T03:49:41.681Z,100.00
2023-01-04T03:52:13.962Z,100.00
2023-01-04T03:54:46.311Z,100.00
2023-01-04T03:57:16.039Z,100.00
2023-01-04T03:59:48.385Z,100.00
2023-01-04T04:02:19.584Z,100.00
2023-01-04T04:05:05.497Z,100.00
2023-01-04T04:07:51.016Z,100.00
2023-01-04T04:10:20.622Z,100.00
2023-01-04T04:12:49.327Z,100.00
2023-01-04T04:15:17.858Z,100.00
2023-01-04T04:17:46.016Z,100.00
2023-01-04T04:20:14.276Z,100.00
2023-01-04T04:22:42.376Z,100.00
2023-01-04T04:25:10.990Z,100.00
2023-01-04T04:27:40.462Z,100.00
2023-01-04T04:30:09.556Z,100.00
2023-01-04T04:32:37.795Z,100.00
2023-01-04T04:35:06.438Z,100.00
2023-01-04T04:37:35.136Z,100.00
2023-01-04T04:40:03.916Z,100.00
2023-01-04T04:42:31.398Z,100.00
2023-01-04T04:45:00.848Z,100.00
2023-01-04T04:47:29.060Z,100.00
2023-01-04T04:49:57.187Z,100.00
2023-01-04T04:52:25.254Z,100.00
2023-01-04T04:54:53.324Z,100.00
2023-01-04T04:57:21.597Z,100.00
2023-01-04T04:59:49.883Z,100.00
2023-01-04T05:02:19.556Z,100.00
2023-01-04T05:04:48.910Z,100.00
2023-01-04T05:07:17.289Z,100.00
2023-01-04T05:09:45.316Z,100.00
2023-01-04T05:12:32.367Z,100.00
2023-01-04T05:15:01.155Z,100.00
2023-01-04T05:17:30.549Z,100.00
2023-01-04T05:19:59.381Z,100.00
2023-01-04T05:22:27.373Z,100.00
2023-01-04T05:24:55.416Z,100.00
2023-01-04T05:27:24.032Z,100.00
2023-01-04T05:30:15.094Z,100.00
2023-01-04T05:32:44.944Z,100.00
2023-01-04T05:35:13.054Z,100.00
2023-01-04T05:37:41.253Z,100.00
2023-01-04T05:40:10.336Z,100.00
2023-01-04T05:42:38.472Z,100.00
2023-01-04T05:45:07.845Z,100.00
2023-01-04T05:47:36.683Z,100.00
2023-01-04T05:50:07.536Z,100.00
2023-01-04T05:52:36.118Z,100.00
2023-01-04T05:55:04.705Z,100.00
2023-01-04T05:57:32.781Z,100.00
2023-01-04T06:00:00.927Z,100.00
2023-01-04T06:02:31.697Z,100.00
2023-01-04T06:05:00.401Z,100.00
2023-01-04T06:07:30.282Z,100.00
2023-01-04T06:09:58.773Z,100.00
2023-01-04T06:12:27.035Z,100.00
2023-01-04T06:14:55.049Z,100.00
2023-01-04T06:17:23.106Z,100.00
2023-01-04T06:19:51.147Z,100.00
2023-01-04T06:22:19.300Z,100.00
2023-01-04T06:24:48.771Z,100.00
2023-01-04T06:27:19.722Z,100.00
2023-01-04T06:29:47.902Z,100.00
2023-01-04T06:32:16.216Z,100.00
2023-01-04T06:34:44.309Z,100.00
2023-01-04T06:37:12.685Z,100.00
2023-01-04T06:39:40.807Z,100.00
2023-01-04T06:42:31.566Z,100.00
2023-01-04T06:44:59.679Z,100.00
2023-01-04T06:47:27.774Z,100.00
2023-01-04T06:49:55.833Z,100.00
2023-01-04T06:52:24.107Z,100.00
2023-01-04T06:54:52.257Z,100.00
2023-01-04T06:57:23.162Z,100.00
2023-01-04T06:59:51.363Z,100.00
2023-01-04T07:02:19.767Z,100.00
2023-01-04T07:04:48.124Z,100.00
2023-01-04T07:07:16.528Z,100.00
2023-01-04T07:09:45.221Z,100.00
2023-01-04T07:12:13.368Z,100.00
2023-01-04T07:14:42.834Z,100.00
2023-01-04T07:17:10.980Z,100.00
2023-01-04T07:19:39.377Z,100.00
2023-01-04T07:22:07.648Z,100.00
2023-01-04T07:24:37.013Z,100.00
2023-01-04T07:27:05.256Z,100.00
2023-01-04T07:29:34.170Z,100.00
2023-01-04T07:32:07.639Z,100.00
2023-01-04T07:34:39.588Z,100.00
2023-01-04T07:37:10.332Z,100.00
2023-01-04T07:39:38.408Z,100.00
2023-01-04T07:42:06.409Z,100.00
2023-01-04T07:44:34.543Z,100.00
2023-01-04T07:47:04.683Z,100.00
2023-01-04T07:49:32.993Z,100.00
2023-01-04T07:52:48.666Z,100.00
2023-01-04T07:55:16.814Z,100.00
2023-01-04T07:57:44.892Z,100.00
2023-01-04T08:00:14.455Z,100.00
2023-01-04T08:02:44.118Z,100.00
2023-01-04T08:05:12.523Z,100.00
2023-01-04T08:07:40.856Z,100.00
2023-01-04T08:10:09.598Z,100.00
2023-01-04T08:12:37.695Z,100.00
2023-01-04T08:15:06.848Z,100.00
2023-01-04T08:17:35.312Z,100.00
2023-01-04T08:20:05.663Z,100.00
2023-01-04T08:22:33.803Z,100.00
2023-01-04T08:25:01.940Z,100.00
2023-01-04T08:27:30.067Z,100.00
2023-01-04T08:29:58.201Z,100.00
2023-01-04T08:32:26.573Z,100.00
2023-01-04T08:34:54.710Z,100.00
2023-01-04T08:37:24.261Z,100.00
2023-01-04T08:39:52.459Z,100.00
2023-01-04T08:42:28.554Z,100.00
2023-01-04T08:45:01.800Z,100.00
2023-01-04T08:47:30.500Z,100.00
2023-01-04T08:49:59.455Z,100.00
2023-01-04T08:52:30.670Z,100.00
2023-01-04T08:54:59.184Z,100.00
2023-01-04T08:57:27.261Z,100.00
2023-01-04T08:59:55.564Z,100.00
2023-01-04T09:02:27.149Z,100.00
2023-01-04T09:04:59.749Z,100.00
2023-01-04T09:07:31.674Z,100.00
2023-01-04T09:10:00.953Z,100.00
2023-01-04T09:12:30.457Z,100.00
2023-01-04T09:14:58.570Z,100.00
2023-01-04T09:17:26.974Z,100.00
2023-01-04T09:19:55.118Z,100.00
2023-01-04T09:22:23.442Z,100.00
2023-01-04T09:24:54.141Z,100.00
2023-01-04T09:27:22.250Z,100.00
2023-01-04T09:29:50.472Z,100.00
2023-01-04T09:32:18.647Z,100.00
2023-01-04T09:34:47.127Z,100.00
2023-01-04T09:37:15.421Z,100.00
2023-01-04T09:39:43.595Z,100.00
2023-01-04T09:42:22.640Z,100.00
2023-01-04T09:45:22.556Z,100.00
2023-01-04T09:47:48.074Z,100.00
2023-01-04T09:50:21.217Z,100.00
2023-01-04T09:53:03.541Z,100.00
2023-01-04T09:55:37.316Z,100.00
2023-01-04T09:58:22.068Z,100.00
2023-01-04T10:00:53.921Z,100.00
2023-01-04T10:03:26.744Z,100.00
2023-01-04T10:05:57.438Z,100.00
2023-01-04T10:08:26.328Z,100.00
2023-01-04T10:11:08.840Z,100.00
2023-01-04T10:13:53.377Z,100.00
2023-01-04T10:16:52.438Z,100.00
2023-01-04T10:22:24.515Z,100.00
2023-01-04T10:25:01.928Z,100.00
2023-01-04T10:27:42.626Z,100.00
2023-01-04T10:30:28.197Z,100.00
2023-01-04T10:33:05.761Z,100.00
2023-01-04T10:35:34.734Z,100.00
2023-01-04T10:38:04.906Z,100.00
2023-01-04T10:40:37.147Z,100.00
2023-01-04T10:43:12.996Z,100.00
2023-01-04T10:45:51.216Z,100.00
2023-01-04T10:48:27.609Z,100.00
2023-01-04T10:50:59.800Z,100.00
2023-01-04T10:53:37.939Z,100.00
2023-01-04T10:56:26.244Z,100.00
2023-01-04T10:59:04.641Z,100.00
2023-01-04T11:01:40.620Z,100.00
2023-01-04T11:04:15.596Z,100.00
2023-01-04T11:06:50.453Z,100.00
2023-01-04T11:09:25.364Z,98.47
2023-01-04T11:11:56.706Z,98.26
2023-01-04T11:14:29.459Z,99.44
2023-01-04T11:17:05.579Z,99.98
2023-01-04T11:19:35.860Z,97.55
2023-01-04T11:22:12.514Z,97.96
2023-01-04T11:25:00.367Z,96.57
2023-01-04T11:27:37.599Z,96.39
2023-01-04T11:30:13.388Z,96.22
2023-01-04T11:32:50.928Z,96.72
2023-01-04T11:35:42.617Z,95.74
2023-01-04T11:38:16.889Z,94.19
2023-01-04T11:41:01.754Z,93.03
2023-01-04T11:43:36.524Z,93.65
2023-01-04T11:46:07.127Z,94.00
2023-01-04T11:48:42.726Z,93.29
2023-01-04T11:51:36.683Z,92.79
2023-01-04T11:54:07.623Z,93.23
2023-01-04T11:56:37.614Z,94.36
2023-01-04T11:59:22.634Z,94.30
2023-01-04T12:02:12.755Z,93.08
2023-01-04T12:04:45.869Z,92.10
2023-01-04T12:07:30.876Z,91.76
2023-01-04T12:10:00.480Z,91.38
2023-01-04T12:12:31.427Z,93.03
2023-01-04T12:15:03.740Z,93.75
2023-01-04T12:17:44.086Z,94.92
2023-01-04T12:20:19.611Z,95.02
2023-01-04T12:22:48.318Z,93.68
2023-01-04T12:25:32.224Z,92.71
2023-01-04T12:28:00.443Z,91.61
2023-01-04T12:30:41.920Z,91.81
2023-01-04T12:33:40.527Z,91.41
2023-01-04T12:36:11.867Z,91.59
2023-01-04T12:39:06.283Z,91.53
2023-01-04T12:42:18.425Z,88.57
2023-01-04T12:45:23.281Z,84.37
2023-01-04T12:48:12.601Z,82.78
2023-01-04T12:51:31.534Z,82.16
2023-01-04T12:54:03.319Z,81.17
2023-01-04T12:57:08.607Z,81.30
2023-01-04T12:59:38.300Z,81.69
2023-01-04T13:02:24.808Z,81.08
2023-01-04T13:05:17.043Z,80.73
2023-01-04T13:07:45.134Z,78.90
2023-01-04T13:10:30.178Z,79.47
2023-01-04T13:13:18.276Z,80.06
2023-01-04T13:15:58.190Z,80.61
2023-01-04T13:18:45.282Z,80.44
2023-01-04T13:21:16.893Z,81.10
2023-01-04T13:23:51.350Z,80.36
2023-01-04T13:26:40.979Z,80.57
2023-01-04T13:29:16.322Z,80.57
2023-01-04T13:31:50.075Z,80.20
2023-01-04T13:34:22.400Z,81.12
2023-01-04T13:37:17.378Z,80.40
2023-01-04T13:39:47.937Z,79.81
2023-01-04T13:42:24.911Z,80.12
2023-01-04T13:45:24.265Z,80.21
2023-01-04T13:47:56.739Z,80.93
2023-01-04T13:50:31.221Z,80.84
2023-01-04T13:53:06.816Z,80.93
2023-01-04T13:55:38.091Z,81.23
2023-01-04T13:58:09.054Z,81.70
2023-01-04T14:00:43.980Z,82.27
2023-01-04T14:03:29.247Z,83.45
2023-01-04T14:06:11.937Z,83.64
2023-01-04T14:08:46.235Z,83.47
2023-01-04T14:11:35.430Z,82.49
2023-01-04T14:14:07.120Z,82.78
2023-01-04T14:16:35.309Z,83.22
2023-01-04T14:19:42.210Z,83.83
2023-01-04T14:22:34.945Z,84.10
2023-01-04T14:25:48.747Z,84.31
2023-01-04T14:28:46.858Z,85.03
2023-01-04T14:31:32.169Z,85.48
2023-01-04T14:34:05.422Z,86.09
2023-01-04T14:36:36.819Z,87.13
2023-01-04T14:39:33.083Z,87.72
2023-01-04T14:42:01.710Z,88.36
2023-01-04T14:44:34.375Z,89.20
2023-01-04T14:47:06.654Z,89.83
2023-01-04T14:49:34.754Z,90.60
2023-01-04T14:52:04.484Z,90.84
2023-01-04T14:54:35.286Z,92.05
2023-01-04T14:57:03.851Z,91.74
2023-01-04T14:59:33.419Z,92.57
2023-01-04T15:02:01.660Z,93.29
2023-01-04T15:04:29.764Z,93.44
2023-01-04T15:06:59.649Z,94.37
2023-01-04T15:09:28.967Z,94.93
2023-01-04T15:11:57.759Z,95.17
2023-01-04T15:14:26.139Z,96.11
2023-01-04T15:16:55.892Z,96.17
2023-01-04T15:19:24.005Z,96.21
2023-01-04T15:21:52.239Z,96.88
2023-01-04T15:24:20.436Z,97.24
2023-01-04T15:26:49.292Z,97.54
2023-01-04T15:29:17.412Z,98.00
2023-01-04T15:31:45.719Z,98.23
2023-01-04T15:34:15.281Z,98.59
2023-01-04T15:36:43.812Z,99.27
2023-01-04T15:39:14.214Z,100.00
2023-01-04T15:41:59.718Z,100.00
2023-01-04T15:44:28.253Z,100.00
2023-01-04T15:46:59.544Z,100.00
2023-01-04T15:49:30.680Z,100.00
2023-01-04T15:51:59.157Z,100.00
2023-01-04T15:54:27.835Z,100.00
2023-01-04T15:56:56.776Z,100.00
2023-01-04T15:59:26.002Z,100.00
2023-01-04T16:01:54.389Z,100.00
2023-01-04T16:04:22.512Z,100.00
2023-01-04T16:06:52.012Z,100.00
2023-01-04T16:09:20.248Z,100.00
2023-01-04T16:12:02.308Z,100.00
2023-01-04T16:14:30.469Z,100.00
2023-01-04T16:16:58.594Z,100.00
2023-01-04T16:19:26.663Z,100.00
2023-01-04T16:21:56.271Z,100.00
2023-01-04T16:27:12.846Z,100.00
2023-01-04T16:29:40.950Z,100.00
2023-01-04T16:32:09.118Z,100.00
2023-01-04T16:34:37.429Z,100.00
2023-01-04T16:37:06.926Z,100.00
2023-01-04T16:40:05.221Z,100.00
2023-01-04T16:42:23.159Z,100.00
2023-01-04T16:44:51.446Z,100.00
2023-01-04T16:47:19.654Z,100.00
2023-01-04T16:49:52.554Z,100.00
2023-01-04T16:52:22.115Z,100.00
2023-01-04T16:54:50.691Z,100.00
2023-01-04T16:57:18.881Z,100.00
2023-01-04T16:59:47.034Z,100.00
2023-01-04T17:02:15.451Z,100.00
2023-01-04T17:04:44.262Z,100.00
2023-01-04T17:07:12.475Z,100.00
2023-01-04T17:10:01.329Z,100.00
2023-01-04T17:12:46.862Z,100.00
2023-01-04T17:15:42.077Z,100.00
2023-01-04T17:18:03.649Z,100.00
2023-01-04T17:20:31.892Z,100.00
2023-01-04T17:23:00.041Z,100.00
2023-01-04T17:25:29.850Z,100.00
2023-01-04T17:27:57.930Z,100.00
2023-01-04T17:30:25.991Z,100.00
2023-01-04T17:32:54.493Z,100.00
2023-01-04T17:35:22.606Z,100.00
2023-01-04T17:37:50.634Z,100.00
2023-01-04T17:40:22.859Z,100.00
2023-01-04T17:42:52.972Z,100.00
2023-01-04T17:45:21.508Z,100.00
2023-01-04T17:47:49.792Z,100.00
2023-01-04T17:50:18.312Z,100.00
2023-01-04T17:52:48.328Z,100.00
2023-01-04T17:55:16.712Z,100.00
2023-01-04T17:57:45.625Z,99.94
2023-01-04T18:00:16.358Z,98.83
2023-01-04T18:02:45.253Z,99.34
2023-01-04T18:05:13.392Z,100.00
2023-01-04T18:07:41.555Z,99.85
2023-01-04T18:10:20.671Z,98.87
2023-01-04T18:12:49.338Z,99.58
2023-01-04T18:15:19.237Z,99.10
2023-01-04T18:17:47.329Z,100.00
2023-01-04T18:20:24.006Z,100.00
2023-01-04T18:22:52.656Z,100.00
2023-01-04T18:25:21.016Z,100.00
2023-01-04T18:27:49.155Z,100.00
2023-01-04T18:30:18.968Z,100.00
2023-01-04T18:32:47.239Z,100.00
2023-01-04T18:35:15.333Z,100.00
2023-01-04T18:37:46.557Z,100.00
2023-01-04T18:40:14.759Z,100.00
2023-01-04T18:42:47.427Z,100.00
2023-01-04T18:45:15.898Z,100.00
2023-01-04T18:47:47.660Z,100.00
2023-01-04T18:50:16.239Z,100.00
2023-01-04T18:52:44.419Z,100.00
2023-01-04T18:55:12.684Z,100.00
2023-01-04T18:57:40.933Z,100.00
2023-01-04T19:00:11.084Z,100.00
2023-01-04T19:02:39.494Z,100.00
2023-01-04T19:05:10.726Z,100.00
2023-01-04T19:07:40.331Z,100.00
2023-01-04T19:10:09.746Z,100.00
2023-01-04T19:12:39.111Z,100.00
2023-01-04T19:15:09.364Z,100.00
2023-01-04T19:17:38.922Z,100.00
2023-01-04T19:20:09.408Z,100.00
2023-01-04T19:22:37.591Z,100.00
2023-01-04T19:25:07.074Z,100.00
2023-01-04T19:27:35.656Z,100.00
2023-01-04T19:30:03.945Z,100.00
2023-01-04T19:32:33.966Z,100.00
2023-01-04T19:35:02.821Z,100.00
2023-01-04T19:37:32.789Z,100.00
2023-01-04T19:40:01.444Z,100.00
2023-01-04T19:42:29.614Z,100.00
2023-01-04T19:44:58.093Z,100.00
2023-01-04T19:47:26.928Z,100.00
2023-01-04T19:49:55.025Z,100.00
2023-01-04T19:52:23.135Z,100.00
2023-01-04T19:54:52.669Z,100.00
2023-01-04T19:57:21.293Z,100.00
2023-01-04T19:59:49.405Z,100.00
2023-01-04T20:02:18.080Z,100.00
2023-01-04T20:04:46.629Z,100.00
2023-01-04T20:07:14.809Z,100.00
2023-01-04T20:09:43.119Z,100.00
2023-01-04T20:12:12.967Z,100.00
2023-01-04T20:14:41.093Z,100.00
2023-01-04T20:17:09.423Z,100.00
2023-01-04T20:19:37.577Z,100.00
2023-01-04T20:22:05.721Z,100.00
2023-01-04T20:24:34.327Z,100.00
2023-01-04T20:27:02.507Z,100.00
2023-01-04T20:29:33.396Z,100.00
2023-01-04T20:32:03.431Z,100.00
2023-01-04T20:34:31.825Z,100.00
2023-01-04T20:36:59.974Z,100.00
2023-01-04T20:39:29.529Z,100.00
2023-01-04T20:42:15.005Z,100.00
2023-01-04T20:44:44.608Z,100.00
2023-01-04T20:47:12.761Z,100.00
2023-01-04T20:49:40.942Z,100.00
2023-01-04T20:52:09.105Z,100.00
2023-01-04T20:54:37.583Z,100.00
2023-01-04T20:57:05.714Z,100.00
2023-01-04T20:59:34.077Z,100.00
2023-01-04T21:02:04.772Z,100.00
2023-01-04T21:04:33.081Z,100.00
2023-01-04T21:07:01.177Z,100.00
2023-01-04T21:09:29.332Z,100.00
2023-01-04T21:12:00.681Z,100.00
2023-01-04T21:14:33.668Z,100.00
2023-01-04T21:17:03.086Z,100.00
2023-01-04T21:19:31.266Z,100.00
2023-01-04T21:21:59.371Z,100.00
2023-01-04T21:24:27.442Z,100.00
2023-01-04T21:26:55.572Z,100.00
2023-01-04T21:29:25.570Z,100.00
2023-01-04T21:31:53.859Z,100.00
2023-01-04T21:34:23.451Z,100.00
2023-01-04T21:36:51.643Z,100.00
2023-01-04T21:39:20.201Z,100.00
2023-01-04T21:41:51.351Z,100.00
2023-01-04T21:44:19.425Z,100.00
2023-01-04T21:46:48.188Z,100.00
2023-01-04T21:49:16.332Z,100.00
2023-01-04T21:51:45.945Z,100.00
2023-01-04T21:54:13.967Z,100.00
2023-01-04T21:56:42.125Z,100.00
2023-01-04T21:59:10.259Z,100.00
2023-01-04T22:01:38.643Z,100.00
2023-01-04T22:04:07.704Z,100.00
2023-01-04T22:06:37.569Z,100.00
2023-01-04T22:09:07.395Z,100.00
2023-01-04T22:11:35.533Z,100.00
2023-01-04T22:14:04.877Z,100.00
2023-01-04T22:16:33.102Z,100.00
2023-01-04T22:19:01.195Z,100.00
2023-01-04T22:21:29.402Z,100.00
2023-01-04T22:23:57.587Z,100.00
2023-01-04T22:26:27.088Z,100.00
2023-01-04T22:28:55.152Z,100.00
2023-01-04T22:31:23.376Z,100.00
2023-01-04T22:33:51.601Z,100.00
2023-01-04T22:36:23.353Z,100.00
2023-01-04T22:38:52.831Z,100.00
2023-01-04T22:41:22.598Z,100.00
2023-01-04T22:43:57.705Z,100.00
2023-01-04T22:46:26.934Z,100.00
2023-01-04T22:48:55.431Z,100.00
2023-01-04T22:51:24.835Z,100.00
2023-01-04T22:53:55.372Z,100.00
2023-01-04T22:56:23.726Z,100.00
2023-01-04T22:58:54.987Z,100.00
2023-01-04T23:01:26.384Z,100.00
2023-01-04T23:03:55.123Z,100.00
2023-01-04T23:06:24.045Z,100.00
2023-01-04T23:08:58.089Z,100.00
2023-01-04T23:11:27.697Z,100.00
2023-01-04T23:13:55.778Z,100.00
2023-01-04T23:16:32.040Z,100.00
2023-01-04T23:19:01.208Z,100.00
2023-01-04T23:21:29.435Z,100.00
2023-01-04T23:23:57.723Z,100.00
2023-01-04T23:26:27.367Z,100.00
2023-01-04T23:28:55.826Z,100.00
2023-01-04T23:31:27.781Z,100.00
2023-01-04T23:33:57.944Z,100.00
2023-01-04T23:36:29.396Z,100.00
2023-01-04T23:38:59.787Z,100.00
2023-01-04T23:41:42.685Z,100.00
2023-01-04T23:44:13.131Z,100.00
2023-01-04T23:46:42.791Z,100.00
2023-01-04T23:49:11.117Z,100.00
2023-01-04T23:51:39.225Z,100.00
2023-01-04T23:54:08.484Z,100.00
2023-01-04T23:56:37.480Z,100.00
2023-01-04T23:59:06.016Z,100.00
